Time;durP1;ratioP1;P1;durP2;ratioP2;P2;SDS_P1;SDS_P2;PMS_P1;PMS_P2;Temp;Humidity;BMP_temperature;BMP_pressure;BME280_temperature;BME280_humidity;BME280_pressure;Samples;Min_cycle;Max_cycle;Signal;HPM_P1;HPM_P2
2022/01/19 00:04:08;;;;;;;9.25;6.40;;;;;;;3.38;100.00;100060.66;10436699;28;20092;-55
2022/01/19 00:09:13;;;;;;;8.07;6.15;;;;;;;3.39;100.00;100052.59;10436097;28;20476;-53
2022/01/19 00:14:16;;;;;;;9.55;6.30;;;;;;;3.40;100.00;100042.81;10457135;28;20115;-58
2022/01/19 00:19:19;;;;;;;9.80;6.22;;;;;;;3.41;100.00;100027.66;10448889;28;20072;-56
2022/01/19 00:24:24;;;;;;;8.15;6.35;;;;;;;3.39;100.00;99998.44;10450770;28;20102;-56
2022/01/19 00:29:27;;;;;;;8.88;7.00;;;;;;;3.32;100.00;99991.69;10457205;28;20163;-61
2022/01/19 00:34:30;;;;;;;8.60;6.55;;;;;;;3.34;100.00;99995.13;10456965;28;20090;-58
2022/01/19 00:39:37;;;;;;;8.80;6.47;;;;;;;3.34;100.00;99980.03;10472053;28;20021;-54
2022/01/19 00:44:40;;;;;;;8.38;7.00;;;;;;;3.34;100.00;99988.03;10495137;28;20025;-59
2022/01/19 00:49:45;;;;;;;10.00;6.95;;;;;;;3.32;100.00;99999.69;10480348;28;20052;-56
2022/01/19 00:54:49;;;;;;;9.10;7.20;;;;;;;3.31;100.00;99980.19;10496758;28;20048;-60
2022/01/19 00:59:52;;;;;;;9.82;7.10;;;;;;;3.23;100.00;99983.22;10462047;28;20377;-58
2022/01/19 01:04:56;;;;;;;9.38;6.75;;;;;;;3.21;100.00;99968.25;10439831;28;20779;-59
2022/01/19 01:10:01;;;;;;;9.25;6.65;;;;;;;3.16;100.00;99968.50;10443956;28;20119;-59
2022/01/19 01:15:28;;;;;;;9.20;6.82;;;;;;;3.15;100.00;99974.75;10440118;28;20124;-61
2022/01/19 01:20:32;;;;;;;7.03;5.78;;;;;;;3.11;100.00;99951.03;10419441;28;20048;-57
2022/01/19 01:25:38;;;;;;;8.63;6.50;;;;;;;3.11;100.00;99951.03;10446087;28;20123;-59
2022/01/19 01:30:42;;;;;;;7.40;6.18;;;;;;;3.10;100.00;99944.81;10452479;28;20421;-57
2022/01/19 01:35:47;;;;;;;6.88;5.82;;;;;;;3.05;100.00;99929.06;10455504;28;20090;-60
2022/01/19 01:40:52;;;;;;;7.93;5.90;;;;;;;3.05;100.00;99909.59;10433061;28;20048;-59
2022/01/19 01:46:02;;;;;;;7.47;5.60;;;;;;;3.00;100.00;99891.13;10458816;28;20127;-60
2022/01/19 01:56:30;;;;;;;6.15;4.90;;;;;;;2.89;100.00;99896.13;10417654;28;20053;-57
2022/01/19 02:01:40;;;;;;;4.63;4.00;;;;;;;2.81;100.00;99893.88;10429485;28;20045;-56
2022/01/19 02:07:08;;;;;;;5.63;4.03;;;;;;;2.80;100.00;99889.50;10438940;28;20048;-59
2022/01/19 02:23:14;;;;;;;5.07;4.47;;;;;;;2.64;100.00;99848.59;10444448;28;20033;-60
2022/01/19 02:49:52;;;;;;;4.43;4.00;;;;;;;2.43;100.00;99822.97;10376323;28;20056;-56
2022/01/19 02:54:57;;;;;;;4.22;3.83;;;;;;;2.38;100.00;99789.53;10429426;28;20130;-57
2022/01/19 03:10:40;;;;;;;5.15;4.65;;;;;;;2.27;100.00;99750.19;10443001;28;20045;-60
2022/01/19 03:15:43;;;;;;;4.93;4.43;;;;;;;2.27;100.00;99736.91;10460278;28;20037;-59
2022/01/19 03:20:46;;;;;;;5.15;4.50;;;;;;;2.19;100.00;99725.75;10441158;28;20412;-58
2022/01/19 03:25:53;;;;;;;3.65;3.35;;;;;;;2.08;100.00;99692.59;10425279;28;20080;-57
2022/01/19 03:30:57;;;;;;;4.97;3.80;;;;;;;1.98;100.00;99678.91;10434671;28;20052;-60
2022/01/19 03:36:05;;;;;;;5.30;4.90;;;;;;;2.00;100.00;99669.03;10434854;28;20135;-60
2022/01/19 03:41:11;;;;;;;5.65;5.15;;;;;;;2.00;100.00;99658.41;10453948;28;20041;-60
2022/01/19 03:46:16;;;;;;;7.13;6.32;;;;;;;1.97;100.00;99647.06;10450610;28;20073;-59
2022/01/19 03:51:20;;;;;;;7.60;6.90;;;;;;;1.93;100.00;99641.03;10446675;28;20048;-58
2022/01/19 03:56:24;;;;;;;4.70;4.30;;;;;;;1.83;100.00;99627.34;10429189;28;20048;-59
2022/01/19 04:01:28;;;;;;;4.63;4.22;;;;;;;1.79;100.00;99623.13;10449796;28;20037;-56
2022/01/19 04:06:53;;;;;;;5.22;4.82;;;;;;;1.79;100.00;99607.19;10448644;28;20130;-55
2022/01/19 04:11:59;;;;;;;5.53;5.03;;;;;;;1.67;100.00;99591.84;10424967;28;20573;-52
2022/01/19 04:17:06;;;;;;;5.78;5.20;;;;;;;1.68;100.00;99580.31;10427838;28;20059;-61
2022/01/19 04:22:14;;;;;;;7.18;6.47;;;;;;;1.65;100.00;99561.84;10432648;28;20041;-56
2022/01/19 04:27:33;;;;;;;6.90;6.30;;;;;;;1.62;100.00;99541.63;10420303;28;20048;-52
2022/01/19 04:32:43;;;;;;;7.32;6.72;;;;;;;1.59;100.00;99536.44;10418504;28;20094;-52
2022/01/19 04:38:11;;;;;;;7.50;6.80;;;;;;;1.59;100.00;99531.13;10443168;28;20048;-51
2022/01/19 04:54:40;;;;;;;6.55;5.95;;;;;;;1.41;100.00;99530.25;10451468;28;20051;-51
2022/01/19 05:05:32;;;;;;;7.90;7.20;;;;;;;1.40;100.00;99514.41;10446849;28;20493;-55
2022/01/19 05:15:58;;;;;;;7.03;6.47;;;;;;;1.29;100.00;99497.22;10444768;28;20055;-51
2022/01/19 05:21:03;;;;;;;6.85;6.25;;;;;;;1.22;100.00;99482.50;10431538;28;20417;-54
2022/01/19 05:26:26;;;;;;;7.85;7.10;;;;;;;1.18;100.00;99489.78;10441236;28;20072;-53
2022/01/19 05:31:32;;;;;;;7.47;6.88;;;;;;;1.11;100.00;99487.47;10416600;28;20052;-54
2022/01/19 05:36:35;;;;;;;7.40;6.65;;;;;;;1.09;100.00;99487.56;10424521;28;20080;-55
2022/01/19 05:41:55;;;;;;;8.07;7.28;;;;;;;1.12;100.00;99478.59;10446854;28;20128;-56
2022/01/19 05:47:00;;;;;;;7.65;6.95;;;;;;;1.04;100.00;99477.19;10424197;28;20406;-52
2022/01/19 05:52:04;;;;;;;8.35;7.55;;;;;;;1.05;100.00;99478.03;10434898;28;20084;-51
2022/01/19 05:57:07;;;;;;;8.57;7.78;;;;;;;1.04;100.00;99476.31;10407830;28;20051;-51
2022/01/19 06:02:18;;;;;;;9.35;8.35;;;;;;;1.00;100.00;99466.78;10451076;28;20085;-52
2022/01/19 06:07:28;;;;;;;9.02;8.13;;;;;;;0.96;100.00;99470.53;10436469;28;20053;-52
2022/01/19 06:12:36;;;;;;;10.35;9.38;;;;;;;0.96;100.00;99452.78;10434721;28;20037;-52
2022/01/19 06:17:41;;;;;;;10.20;9.20;;;;;;;1.00;100.00;99441.09;10446296;28;20065;-52
2022/01/19 06:22:48;;;;;;;9.32;8.43;;;;;;;1.00;100.00;99434.94;10419241;28;20049;-51
2022/01/19 06:27:52;;;;;;;9.15;8.25;;;;;;;0.97;100.00;99430.63;10443143;28;20048;-52
2022/01/19 06:32:57;;;;;;;9.57;8.68;;;;;;;0.97;100.00;99427.97;10433808;28;20371;-53
2022/01/19 06:38:00;;;;;;;7.78;6.97;;;;;;;0.93;100.00;99415.81;10455856;28;20090;-57
2022/01/19 06:43:23;;;;;;;8.25;7.45;;;;;;;0.98;100.00;99428.84;10456172;28;20037;-53
2022/01/19 06:48:29;;;;;;;8.35;7.55;;;;;;;0.96;100.00;99420.09;10458460;28;20395;-60
2022/01/19 06:53:34;;;;;;;8.57;7.68;;;;;;;0.97;100.00;99404.09;10443031;28;20045;-54
2022/01/19 06:59:00;;;;;;;8.25;7.47;;;;;;;0.98;100.00;99412.94;10453618;28;20187;-52
2022/01/19 07:04:25;;;;;;;9.07;7.60;;;;;;;0.99;100.00;99409.34;10442607;28;20063;-52
2022/01/19 07:09:30;;;;;;;8.25;7.45;;;;;;;1.00;100.00;99400.44;10430480;28;20056;-52
2022/01/19 07:14:35;;;;;;;7.32;6.63;;;;;;;1.00;100.00;99387.19;10460862;28;20041;-61
2022/01/19 07:19:41;;;;;;;7.43;6.72;;;;;;;1.04;100.00;99383.44;10464705;28;20055;-53
2022/01/19 07:24:45;;;;;;;7.20;6.57;;;;;;;1.05;100.00;99377.19;10460024;28;20041;-53
2022/01/19 07:29:49;;;;;;;6.93;6.25;;;;;;;1.06;100.00;99361.16;10458056;28;20115;-55
2022/01/19 07:34:53;;;;;;;5.80;5.30;;;;;;;1.11;100.00;99362.75;10456344;28;20056;-56
2022/01/19 07:39:57;;;;;;;6.85;5.97;;;;;;;1.11;100.00;99355.66;10433072;28;20045;-53
2022/01/19 07:45:01;;;;;;;6.60;6.00;;;;;;;1.14;100.00;99350.16;10444306;28;20037;-56
2022/01/19 07:50:44;;;;;;;6.82;6.22;;;;;;;1.17;100.00;99342.06;10455233;28;20056;-58
2022/01/19 07:56:10;;;;;;;6.65;6.05;;;;;;;1.20;100.00;99333.06;10462310;28;20118;-54
2022/01/19 08:01:32;;;;;;;6.32;5.68;;;;;;;1.19;100.00;99313.66;10464181;28;20040;-56
2022/01/19 08:06:56;;;;;;;5.47;4.97;;;;;;;1.20;100.00;99315.38;10452436;28;20072;-56
2022/01/19 08:12:00;;;;;;;5.75;5.20;;;;;;;1.22;100.00;99309.97;10451856;28;20131;-57
2022/01/19 08:17:04;;;;;;;5.90;5.40;;;;;;;1.20;100.00;99299.44;10454557;28;20052;-56
2022/01/19 08:22:13;;;;;;;6.25;5.13;;;;;;;1.25;100.00;99290.34;10459805;28;20449;-56
2022/01/19 08:27:36;;;;;;;5.90;5.38;;;;;;;1.25;100.00;99285.03;10456629;28;20056;-54
2022/01/19 08:32:42;;;;;;;4.80;4.28;;;;;;;1.24;100.00;99292.16;10426697;28;20493;-53
2022/01/19 08:38:03;;;;;;;4.90;4.50;;;;;;;1.25;100.00;99282.38;10422552;28;20049;-53
2022/01/19 08:43:14;;;;;;;5.20;4.70;;;;;;;1.28;100.00;99279.56;10430756;28;20060;-52
2022/01/19 08:48:19;;;;;;;5.03;4.63;;;;;;;1.32;100.00;99273.19;10425104;28;20045;-51
2022/01/19 08:54:03;;;;;;;4.25;3.85;;;;;;;1.28;100.00;99266.31;10301668;28;20050;-57
2022/01/19 08:59:13;;;;;;;4.50;4.10;;;;;;;1.32;100.00;99259.91;10395925;28;20048;-53
2022/01/19 09:04:16;;;;;;;3.70;3.40;;;;;;;1.33;100.00;99251.00;10457229;28;20195;-53
2022/01/19 09:09:21;;;;;;;3.90;3.53;;;;;;;1.37;100.00;99242.78;10470198;28;20131;-58
2022/01/19 09:14:25;;;;;;;3.83;3.53;;;;;;;1.38;100.00;99235.66;10488794;28;20128;-54
2022/01/19 09:19:28;;;;;;;4.13;3.72;;;;;;;1.46;100.00;99245.88;10486391;28;20106;-55
2022/01/19 09:24:35;;;;;;;4.13;3.50;;;;;;;1.45;100.00;99242.38;10501221;28;20102;-61
2022/01/19 09:29:42;;;;;;;3.75;3.28;;;;;;;1.45;100.00;99250.34;10490938;28;20778;-53
2022/01/19 09:34:55;;;;;;;3.00;2.63;;;;;;;1.46;100.00;99230.81;10508310;28;20044;-58
2022/01/19 09:39:59;;;;;;;3.03;2.80;;;;;;;1.47;100.00;99229.00;10535751;28;20052;-57
2022/01/19 09:45:04;;;;;;;3.97;2.80;;;;;;;1.46;100.00;99217.53;10538086;28;20046;-61
2022/01/19 09:50:08;;;;;;;3.10;2.80;;;;;;;1.53;100.00;99218.03;10448382;28;20133;-56
2022/01/19 09:55:15;;;;;;;3.33;3.03;;;;;;;1.51;100.00;99204.84;10480861;28;20051;-57
2022/01/19 10:00:18;;;;;;;2.88;2.67;;;;;;;1.66;100.00;99187.19;10476875;28;20090;-54
2022/01/19 10:05:22;;;;;;;2.78;2.55;;;;;;;1.71;100.00;99152.41;10506392;28;20044;-55
2022/01/19 10:10:27;;;;;;;2.92;2.70;;;;;;;1.85;100.00;99149.81;10478270;28;20049;-58
2022/01/19 10:21:06;;;;;;;2.92;2.63;;;;;;;1.94;100.00;99097.13;10462539;28;20512;-59
2022/01/19 10:26:14;;;;;;;2.92;2.33;;;;;;;2.05;100.00;99086.69;10466923;28;20110;-54
2022/01/19 10:31:18;;;;;;;3.03;2.38;;;;;;;2.17;100.00;99063.84;10478604;28;20500;-58
2022/01/19 10:36:41;;;;;;;2.53;2.20;;;;;;;2.32;100.00;99051.41;10459315;28;20041;-58
2022/01/19 10:42:00;;;;;;;2.78;1.90;;;;;;;2.49;100.00;99030.91;10463358;28;20049;-60
2022/01/19 10:47:05;;;;;;;2.40;2.08;;;;;;;2.61;100.00;99040.78;10470871;28;20072;-58
2022/01/19 10:52:08;;;;;;;2.38;2.05;;;;;;;2.64;100.00;99023.78;10459039;28;20544;-58
2022/01/19 10:57:16;;;;;;;2.42;2.20;;;;;;;2.74;100.00;99019.59;10485315;28;20048;-62
2022/01/19 11:02:36;;;;;;;3.38;2.10;;;;;;;2.84;100.00;99019.88;10469922;28;20177;-59
2022/01/19 11:07:40;;;;;;;4.07;2.30;;;;;;;3.01;100.00;99018.78;10476271;28;20544;-60
2022/01/19 11:12:48;;;;;;;3.13;2.20;;;;;;;3.06;100.00;99003.38;10486700;28;20036;-60
2022/01/19 11:17:51;;;;;;;3.47;2.08;;;;;;;3.18;100.00;99010.56;10483752;28;20443;-59
2022/01/19 11:23:15;;;;;;;4.10;2.50;;;;;;;3.21;100.00;98993.53;10473302;28;20453;-60
2022/01/19 11:28:27;;;;;;;2.78;2.03;;;;;;;3.29;100.00;98966.41;10463963;28;20131;-59
2022/01/19 11:33:32;;;;;;;3.78;2.50;;;;;;;3.43;100.00;98963.66;10481824;28;20032;-60
2022/01/19 11:38:44;;;;;;;5.38;2.70;;;;;;;3.46;100.00;98952.81;10483265;28;20044;-60
2022/01/19 11:43:52;;;;;;;5.03;2.60;;;;;;;3.62;100.00;98941.13;10459281;28;20123;-60
2022/01/19 11:48:55;;;;;;;4.65;2.65;;;;;;;3.67;100.00;98926.53;10487937;28;20047;-59
2022/01/19 11:54:08;;;;;;;6.60;2.70;;;;;;;3.69;100.00;98926.41;10466025;28;20042;-58
2022/01/19 11:59:13;;;;;;;4.72;2.65;;;;;;;3.72;100.00;98915.56;10472391;28;20094;-57
2022/01/19 12:04:18;;;;;;;4.93;3.00;;;;;;;3.87;100.00;98900.31;10453460;28;20468;-55
2022/01/19 12:09:21;;;;;;;5.05;2.78;;;;;;;3.89;100.00;98882.41;10445407;28;20123;-58
2022/01/19 12:14:39;;;;;;;4.95;2.70;;;;;;;3.92;100.00;98870.66;10431353;28;20049;-59
2022/01/19 12:19:46;;;;;;;4.55;2.53;;;;;;;3.99;100.00;98848.78;10447780;28;20045;-57
2022/01/19 12:24:57;;;;;;;5.45;2.45;;;;;;;3.95;100.00;98841.97;10443631;28;20045;-55
2022/01/19 12:30:11;;;;;;;4.40;2.42;;;;;;;3.95;100.00;98825.13;10460715;28;20047;-57
2022/01/19 12:35:24;;;;;;;6.20;2.70;;;;;;;3.92;100.00;98815.56;10434112;28;20048;-58
2022/01/19 12:40:42;;;;;;;4.60;2.63;;;;;;;3.97;100.00;98802.72;10446905;28;20052;-59
2022/01/19 12:46:08;;;;;;;4.78;2.35;;;;;;;3.90;100.00;98772.16;10441948;28;20151;-59
2022/01/19 12:51:39;;;;;;;4.13;2.25;;;;;;;3.82;100.00;98774.53;10448589;28;20051;-57
2022/01/19 12:56:54;;;;;;;4.07;2.47;;;;;;;3.92;100.00;98772.91;10452031;28;20045;-58
2022/01/19 13:02:05;;;;;;;5.22;2.53;;;;;;;3.75;100.00;98773.25;10443825;28;20122;-56
2022/01/19 13:07:18;;;;;;;4.10;2.60;;;;;;;3.81;100.00;98764.81;10462918;28;20036;-55
2022/01/19 13:12:22;;;;;;;6.65;2.40;;;;;;;3.82;100.00;98766.53;10481726;28;21020;-57
2022/01/19 13:17:40;;;;;;;6.60;2.70;;;;;;;3.74;100.00;98768.88;10482271;28;20509;-58
2022/01/19 13:22:45;;;;;;;6.75;2.67;;;;;;;3.81;100.00;98746.16;10477948;28;20045;-56
2022/01/19 13:27:50;;;;;;;3.97;2.60;;;;;;;3.69;100.00;98732.75;10482650;28;20044;-58
2022/01/19 13:32:56;;;;;;;4.63;2.50;;;;;;;3.47;100.00;98732.59;10480666;28;20040;-57
2022/01/19 13:38:00;;;;;;;4.10;2.50;;;;;;;3.65;100.00;98706.41;10480169;28;20053;-58
2022/01/19 13:43:08;;;;;;;5.47;2.85;;;;;;;3.77;100.00;98715.34;10479192;28;20135;-58
2022/01/19 13:48:28;;;;;;;4.40;2.15;;;;;;;3.84;100.00;98716.59;10475990;28;20445;-60
2022/01/19 13:53:37;;;;;;;5.88;2.78;;;;;;;3.90;100.00;98686.84;10478910;28;20490;-61
2022/01/19 13:58:46;;;;;;;5.40;2.28;;;;;;;3.88;100.00;98670.13;10479140;28;20044;-62
2022/01/19 14:03:57;;;;;;;6.85;2.58;;;;;;;3.81;100.00;98658.22;10482066;28;20505;-56
2022/01/19 14:09:08;;;;;;;5.85;2.20;;;;;;;3.83;100.00;98657.13;10488566;28;20139;-61
2022/01/19 14:14:16;;;;;;;5.10;2.30;;;;;;;3.64;100.00;98672.78;10467490;28;20072;-61
2022/01/19 14:19:23;;;;;;;4.75;2.38;;;;;;;3.69;100.00;98676.81;10486996;28;20048;-60
2022/01/19 14:24:29;;;;;;;3.90;2.55;;;;;;;3.67;100.00;98673.41;10475333;28;20118;-60
2022/01/19 14:29:33;;;;;;;5.10;2.63;;;;;;;3.67;100.00;98654.75;10481920;28;20186;-62
2022/01/19 14:34:41;;;;;;;5.78;2.80;;;;;;;3.63;100.00;98650.59;10482536;28;20119;-62
2022/01/19 14:39:51;;;;;;;5.10;2.50;;;;;;;3.72;100.00;98633.09;10482521;28;20131;-58
2022/01/19 14:45:02;;;;;;;4.93;2.40;;;;;;;3.53;100.00;98636.25;10486707;28;20127;-59
2022/01/19 14:50:24;;;;;;;4.97;2.50;;;;;;;3.24;100.00;98623.19;10490622;28;20116;-57
2022/01/19 14:55:29;;;;;;;6.90;2.90;;;;;;;3.14;100.00;98611.50;10485945;28;20043;-57
2022/01/19 15:00:34;;;;;;;6.45;2.88;;;;;;;2.98;100.00;98611.75;10485797;28;20476;-59
2022/01/19 15:05:42;;;;;;;7.53;2.85;;;;;;;2.84;100.00;98610.91;10481867;28;20497;-61
2022/01/19 15:10:45;;;;;;;5.32;2.60;;;;;;;2.79;100.00;98610.41;10485122;28;20070;-55
2022/01/19 15:15:48;;;;;;;7.20;2.97;;;;;;;2.72;100.00;98607.31;10484331;28;20059;-59
2022/01/19 15:20:53;;;;;;;7.43;3.03;;;;;;;2.68;100.00;98595.16;10485902;28;20128;-59
2022/01/19 15:25:57;;;;;;;6.18;3.67;;;;;;;2.59;100.00;98578.03;10484391;28;20032;-57
2022/01/19 15:31:02;;;;;;;7.18;3.92;;;;;;;2.56;100.00;98596.03;10484895;28;20068;-57
2022/01/19 15:36:08;;;;;;;7.25;4.22;;;;;;;2.53;100.00;98593.59;10467063;28;20121;-57
2022/01/19 15:41:11;;;;;;;7.65;4.38;;;;;;;2.47;100.00;98578.88;10477077;28;20079;-61
2022/01/19 15:46:16;;;;;;;7.10;4.20;;;;;;;2.44;100.00;98569.31;10483744;28;20036;-62
2022/01/19 15:51:41;;;;;;;5.70;3.80;;;;;;;2.40;100.00;98577.63;10482558;28;20044;-59
2022/01/19 15:56:47;;;;;;;8.65;4.07;;;;;;;2.36;100.00;98566.34;10487367;28;20055;-61
2022/01/19 16:01:52;;;;;;;8.13;4.40;;;;;;;2.34;100.00;98568.25;10480434;28;20090;-57
2022/01/19 16:06:58;;;;;;;7.75;4.47;;;;;;;2.33;100.00;98555.91;10437743;28;20503;-62
2022/01/19 16:12:01;;;;;;;9.10;4.75;;;;;;;2.30;100.00;98543.69;10437038;28;20139;-60
2022/01/19 16:17:09;;;;;;;6.75;4.82;;;;;;;2.29;100.00;98536.66;10422573;28;20087;-61
2022/01/19 16:26:06;;;;;;;9.20;5.40;;;;;;;2.29;100.00;98541.16;10488098;23;20542;-61
2022/01/19 16:27:38;;;;;;;7.13;4.75;;;;;;;2.28;100.00;98534.13;10497762;28;20044;-61
2022/01/19 16:32:41;;;;;;;8.30;5.28;;;;;;;2.27;100.00;98527.94;10495284;28;20054;-56
2022/01/19 16:37:46;;;;;;;8.48;5.15;;;;;;;2.25;100.00;98529.84;10488305;28;20047;-55
2022/01/19 16:42:49;;;;;;;10.32;5.88;;;;;;;2.28;100.00;98534.97;10495026;28;20131;-57
2022/01/19 16:47:56;;;;;;;7.78;5.47;;;;;;;2.32;100.00;98530.28;10496659;28;20119;-55
2022/01/19 16:53:00;;;;;;;11.45;6.65;;;;;;;2.33;100.00;98524.00;10490273;28;20123;-58
2022/01/19 16:58:03;;;;;;;8.65;6.05;;;;;;;2.34;100.00;98523.06;10497419;28;20131;-53
2022/01/19 17:03:06;;;;;;;8.43;6.28;;;;;;;2.36;100.00;98521.16;10501525;28;20562;-60
2022/01/19 17:08:11;;;;;;;8.20;5.68;;;;;;;2.38;100.00;98508.59;10498979;28;20116;-51
2022/01/19 17:13:27;;;;;;;7.72;5.70;;;;;;;2.35;100.00;98502.66;10493611;28;20051;-60
2022/01/19 17:18:30;;;;;;;7.85;5.30;;;;;;;2.34;100.00;98485.84;10481939;28;20043;-53
2022/01/19 17:23:35;;;;;;;6.45;4.35;;;;;;;2.31;100.00;98509.97;10508204;28;20043;-62
2022/01/19 17:28:38;;;;;;;5.00;3.97;;;;;;;2.39;100.00;98489.03;10508638;28;20439;-55
2022/01/19 17:33:41;;;;;;;4.35;3.30;;;;;;;2.36;100.00;98478.59;10495407;28;20071;-59
2022/01/19 17:38:47;;;;;;;3.40;3.10;;;;;;;2.35;100.00;98490.19;10513983;28;20045;-60
2022/01/19 17:43:51;;;;;;;4.90;3.55;;;;;;;2.36;100.00;98473.28;10514987;28;20563;-61
2022/01/19 17:48:59;;;;;;;5.18;3.63;;;;;;;2.35;100.00;98487.53;10511524;28;20668;-58
2022/01/19 17:54:04;;;;;;;5.10;4.03;;;;;;;2.37;100.00;98482.97;10518050;28;20040;-57
2022/01/19 17:59:09;;;;;;;3.75;3.17;;;;;;;2.37;100.00;98463.50;10496484;28;20056;-57
2022/01/19 18:04:13;;;;;;;4.72;3.30;;;;;;;2.30;100.00;98474.56;10518752;28;20050;-55
2022/01/19 18:09:18;;;;;;;4.05;3.30;;;;;;;2.30;100.00;98463.94;10511929;28;20488;-58
2022/01/19 18:14:21;;;;;;;3.50;3.00;;;;;;;2.27;100.00;98458.00;10514407;28;20047;-55
2022/01/19 18:19:44;;;;;;;3.72;3.10;;;;;;;2.26;100.00;98450.97;10496914;28;20044;-57
2022/01/19 18:24:50;;;;;;;3.38;2.92;;;;;;;2.22;100.00;98460.09;10511812;28;20036;-58
2022/01/19 18:29:53;;;;;;;4.60;3.60;;;;;;;2.17;100.00;98459.59;10502388;28;20086;-51
2022/01/19 18:34:56;;;;;;;5.10;4.07;;;;;;;2.11;100.00;98467.03;10514357;28;20036;-51
2022/01/19 18:40:04;;;;;;;3.75;3.20;;;;;;;2.13;100.00;98483.72;10498175;28;20139;-59
2022/01/19 18:45:08;;;;;;;5.45;4.07;;;;;;;2.08;100.00;98447.78;10513750;28;20547;-52
2022/01/19 18:50:12;;;;;;;5.47;3.97;;;;;;;2.06;100.00;98455.84;10469164;28;20163;-57
2022/01/19 18:55:19;;;;;;;4.60;3.60;;;;;;;2.05;100.00;98451.53;10451050;28;20072;-53
2022/01/19 19:00:23;;;;;;;3.70;3.40;;;;;;;2.05;100.00;98454.19;10476235;28;20087;-56
2022/01/19 19:05:27;;;;;;;4.65;3.80;;;;;;;2.02;100.00;98457.03;10473957;28;20044;-52
2022/01/19 19:10:51;;;;;;;3.70;3.05;;;;;;;2.05;100.00;98461.28;10476743;28;20056;-60
2022/01/19 19:15:54;;;;;;;3.78;3.45;;;;;;;2.03;100.00;98457.88;10477794;28;20110;-55
2022/01/19 19:20:57;;;;;;;4.47;3.67;;;;;;;1.98;100.00;98469.69;10462131;28;20107;-50
2022/01/19 19:26:02;;;;;;;4.32;3.60;;;;;;;1.98;100.00;98471.47;10451189;28;20174;-57
2022/01/19 19:31:05;;;;;;;4.90;3.50;;;;;;;1.95;100.00;98459.28;10463736;28;20086;-54
2022/01/19 19:36:08;;;;;;;3.90;3.30;;;;;;;1.92;100.00;98458.63;10459883;28;20048;-52
2022/01/19 19:41:14;;;;;;;4.90;3.50;;;;;;;1.91;100.00;98457.78;10463105;28;20125;-50
2022/01/19 19:46:17;;;;;;;3.80;3.35;;;;;;;1.91;100.00;98448.97;10461669;28;20895;-50
2022/01/19 19:51:20;;;;;;;3.33;3.03;;;;;;;1.92;100.00;98448.00;10461943;28;20522;-49
2022/01/19 19:56:24;;;;;;;3.65;3.00;;;;;;;1.91;100.00;98447.16;10452833;28;20075;-53
2022/01/19 20:01:27;;;;;;;3.10;2.80;;;;;;;1.91;100.00;98441.84;10457765;28;20044;-58
2022/01/19 20:06:31;;;;;;;3.72;3.17;;;;;;;1.93;100.00;98445.25;10461514;28;20124;-53
2022/01/19 20:11:40;;;;;;;3.42;3.10;;;;;;;1.93;100.00;98436.44;10458804;28;20045;-53
2022/01/19 20:16:43;;;;;;;3.30;2.95;;;;;;;1.90;100.00;98441.94;10448538;28;20059;-52
2022/01/19 20:21:47;;;;;;;3.30;3.00;;;;;;;1.83;100.00;98434.38;10465459;28;20132;-54
2022/01/19 20:26:55;;;;;;;4.97;4.10;;;;;;;1.83;100.00;98447.66;10446648;28;20052;-51
2022/01/19 20:31:59;;;;;;;3.55;3.25;;;;;;;1.81;100.00;98436.31;10460514;28;20043;-57
2022/01/19 20:37:02;;;;;;;4.22;3.60;;;;;;;1.80;100.00;98426.66;10448998;28;20566;-50
2022/01/19 20:42:06;;;;;;;3.35;3.05;;;;;;;1.82;100.00;98427.38;10450101;28;20047;-51
2022/01/19 20:47:10;;;;;;;3.30;3.00;;;;;;;1.84;100.00;98414.84;10462275;28;20041;-55
2022/01/19 20:52:14;;;;;;;3.72;3.33;;;;;;;1.86;100.00;98401.47;10469657;28;20129;-56
2022/01/19 20:57:18;;;;;;;3.67;3.22;;;;;;;1.83;100.00;98391.88;10456728;28;20480;-58
2022/01/19 21:02:22;;;;;;;3.50;3.20;;;;;;;1.84;100.00;98390.09;10461946;28;20057;-55
2022/01/19 21:07:25;;;;;;;3.40;3.08;;;;;;;1.86;100.00;98382.88;10465068;28;20052;-53
2022/01/19 21:12:31;;;;;;;3.42;3.10;;;;;;;1.89;100.00;98381.78;10461997;28;20118;-56
2022/01/19 21:18:01;;;;;;;4.18;3.08;;;;;;;1.94;100.00;98383.16;10447156;28;20052;-60
2022/01/19 21:23:06;;;;;;;3.85;3.00;;;;;;;2.04;100.00;98383.38;10460343;28;20053;-58
2022/01/19 21:28:13;;;;;;;2.63;2.38;;;;;;;2.11;100.00;98378.50;10462811;28;20106;-52
2022/01/19 21:33:16;;;;;;;2.83;2.63;;;;;;;2.27;100.00;98380.91;10461248;28;20036;-54
2022/01/19 21:38:19;;;;;;;2.42;2.20;;;;;;;2.35;100.00;98375.03;10463391;28;20079;-55
2022/01/19 21:43:24;;;;;;;2.83;2.58;;;;;;;2.43;100.00;98370.00;10464397;28;20040;-59
2022/01/19 21:48:28;;;;;;;2.30;2.10;;;;;;;2.44;100.00;98372.53;10466808;28;20041;-60
2022/01/19 21:53:32;;;;;;;2.55;2.35;;;;;;;2.43;100.00;98386.78;10464335;28;20052;-56
2022/01/19 21:58:37;;;;;;;3.50;2.30;;;;;;;2.45;100.00;98382.22;10447119;28;20054;-56
2022/01/19 22:03:40;;;;;;;2.28;2.08;;;;;;;2.47;100.00;98372.31;10463745;28;20070;-53
2022/01/19 22:08:43;;;;;;;1.90;1.80;;;;;;;2.53;100.00;98362.22;10448356;28;20493;-60
2022/01/19 22:13:48;;;;;;;2.20;2.00;;;;;;;2.54;100.00;98379.84;10445558;28;20080;-59
2022/01/19 22:18:51;;;;;;;1.70;1.60;;;;;;;2.52;100.00;98389.78;10426057;28;20045;-58
2022/01/19 22:24:16;;;;;;;2.10;1.90;;;;;;;2.50;100.00;98404.97;10452738;28;20048;-58
2022/01/19 22:29:22;;;;;;;1.70;1.60;;;;;;;2.40;100.00;98405.66;10426012;28;20156;-59
2022/01/19 22:34:26;;;;;;;2.13;1.95;;;;;;;2.38;100.00;98407.56;10437597;28;20055;-59
2022/01/19 22:39:29;;;;;;;2.25;1.95;;;;;;;2.38;100.00;98401.38;10440347;28;20049;-59
2022/01/19 22:44:34;;;;;;;2.30;2.10;;;;;;;2.42;100.00;98401.03;10453449;28;20039;-58
2022/01/19 22:49:38;;;;;;;1.70;1.60;;;;;;;2.55;100.00;98408.16;10447543;28;20511;-59
2022/01/19 22:54:42;;;;;;;1.80;1.70;;;;;;;2.65;100.00;98403.84;10443893;28;20057;-60
2022/01/19 22:59:46;;;;;;;1.85;1.70;;;;;;;2.68;100.00;98402.81;10453782;28;20374;-60
2022/01/19 23:04:49;;;;;;;1.88;1.75;;;;;;;2.71;100.00;98398.09;10462889;28;20147;-59
2022/01/19 23:09:52;;;;;;;1.75;1.65;;;;;;;2.73;100.00;98414.81;10449108;28;20501;-59
2022/01/19 23:14:57;;;;;;;1.70;1.60;;;;;;;2.83;100.00;98401.66;10465284;28;20048;-60
2022/01/19 23:20:00;;;;;;;1.35;1.25;;;;;;;2.96;100.00;98398.09;10445520;28;20472;-59
2022/01/19 23:25:05;;;;;;;1.70;1.50;;;;;;;3.04;100.00;98398.41;10464496;28;20055;-59
2022/01/19 23:30:12;;;;;;;1.63;1.48;;;;;;;3.02;100.00;98390.50;10457497;28;20512;-58
2022/01/19 23:35:18;;;;;;;1.30;1.20;;;;;;;3.02;100.00;98379.84;10459004;28;20123;-58
2022/01/19 23:51:00;;;;;;;1.65;1.50;;;;;;;3.08;100.00;98387.41;10460064;28;20059;-59
2022/01/19 23:56:05;;;;;;;1.80;1.55;;;;;;;3.07;100.00;98408.78;10455633;28;20051;-60
